Sharon, Kansas
Current Conditions -  °F | °C
As of 6:15 AM on Thursday 29 Jan 2015 (Local Time) from KPTT Reporting Station
Clear Clear  
Wind Chill: 24°   Ceiling: Unl
Heat Index: 36°   Visibility: 10mi
Dew Point: 30°   Wind: 22mph
Humidity: 81%   Direction: 360°N
Pressure: 30.31"   Gusts: 29mph
Location:  37.25°N, 98.42°W
Report Text: KPTT 291215Z AUTO 36019G25KT 10SM CLR 02/M01 A3031 RMK AO2
Loading
Personal Weather Stations






























Interactive Weather Map New forecast layout! Learn more

10-Day Weather Forecast

Advertisements
Track Severe Weather on mobile